sensor_id;sensor_type;location;lat;lon;timestamp;P1;durP1;ratioP1;P2;durP2;ratioP2
41480;SDS011;27217;51.220;5.308;2022-09-09T06:07:07;0.30;;;0.30;;
41480;SDS011;27217;51.220;5.308;2022-09-09T06:13:14;0.22;;;0.22;;
41480;SDS011;27217;51.220;5.308;2022-09-09T06:15:48;0.45;;;0.45;;
41480;SDS011;27217;51.220;5.308;2022-09-09T06:22:42;5.07;;;1.75;;
41480;SDS011;27217;51.220;5.308;2022-09-09T06:28:35;0.25;;;0.25;;
41480;SDS011;27217;51.220;5.308;2022-09-09T06:31:02;0.00;;;0.00;;
41480;SDS011;27217;51.220;5.308;2022-09-09T06:40:00;0.00;;;0.00;;
41480;SDS011;27217;51.220;5.308;2022-09-09T06:51:40;0.00;;;0.00;;
41480;SDS011;27217;51.220;5.308;2022-09-09T06:54:12;0.00;;;0.00;;
41480;SDS011;27217;51.220;5.308;2022-09-09T06:56:39;0.15;;;0.15;;
41480;SDS011;27217;51.220;5.308;2022-09-09T07:11:55;0.20;;;0.20;;
41480;SDS011;27217;51.220;5.308;2022-09-09T07:23:38;0.00;;;0.00;;
41480;SDS011;27217;51.220;5.308;2022-09-09T07:29:35;0.65;;;0.65;;
41480;SDS011;27217;51.220;5.308;2022-09-09T07:32:01;0.00;;;0.00;;
41480;SDS011;27217;51.220;5.308;2022-09-09T07:37:50;0.00;;;0.00;;
41480;SDS011;27217;51.220;5.308;2022-09-09T07:49:27;0.00;;;0.00;;
41480;SDS011;27217;51.220;5.308;2022-09-09T07:55:18;0.00;;;0.00;;
41480;SDS011;27217;51.220;5.308;2022-09-09T08:01:13;0.15;;;0.15;;
41480;SDS011;27217;51.220;5.308;2022-09-09T08:07:06;8.30;;;1.92;;
41480;SDS011;27217;51.220;5.308;2022-09-09T08:12:53;8.95;;;2.00;;
41480;SDS011;27217;51.220;5.308;2022-09-09T08:15:20;9.63;;;1.50;;
41480;SDS011;27217;51.220;5.308;2022-09-09T08:21:13;11.10;;;2.55;;
41480;SDS011;27217;51.220;5.308;2022-09-09T08:27:05;6.78;;;1.60;;
41480;SDS011;27217;51.220;5.308;2022-09-09T08:32:56;17.13;;;2.47;;
41480;SDS011;27217;51.220;5.308;2022-09-09T08:50:32;9.13;;;1.70;;
41480;SDS011;27217;51.220;5.308;2022-09-09T08:56:27;10.32;;;1.67;;
41480;SDS011;27217;51.220;5.308;2022-09-09T08:58:57;11.95;;;2.45;;
41480;SDS011;27217;51.220;5.308;2022-09-09T09:17:54;8.52;;;2.17;;
41480;SDS011;27217;51.220;5.308;2022-09-09T09:23:54;13.60;;;1.98;;
41480;SDS011;27217;51.220;5.308;2022-09-09T09:33:58;10.05;;;1.63;;
41480;SDS011;27217;51.220;5.308;2022-09-09T09:42:54;10.43;;;2.53;;
41480;SDS011;27217;51.220;5.308;2022-09-09T09:45:28;11.43;;;1.98;;
41480;SDS011;27217;51.220;5.308;2022-09-09T09:57:13;9.20;;;1.45;;
41480;SDS011;27217;51.220;5.308;2022-09-09T10:02:48;8.45;;;1.63;;
41480;SDS011;27217;51.220;5.308;2022-09-09T10:08:48;10.02;;;2.58;;
41480;SDS011;27217;51.220;5.308;2022-09-09T10:11:28;5.22;;;2.30;;
41480;SDS011;27217;51.220;5.308;2022-09-09T10:36:35;9.38;;;2.88;;
41480;SDS011;27217;51.220;5.308;2022-09-09T10:42:30;4.55;;;2.35;;
41480;SDS011;27217;51.220;5.308;2022-09-09T11:03:37;10.27;;;2.50;;
41480;SDS011;27217;51.220;5.308;2022-09-09T11:06:06;8.27;;;1.98;;
41480;SDS011;27217;51.220;5.308;2022-09-09T11:12:01;6.00;;;2.08;;
41480;SDS011;27217;51.220;5.308;2022-09-09T11:14:38;9.07;;;2.42;;
41480;SDS011;27217;51.220;5.308;2022-09-09T11:24:14;7.85;;;2.45;;
41480;SDS011;27217;51.220;5.308;2022-09-09T11:26:53;6.60;;;2.05;;
41480;SDS011;27217;51.220;5.308;2022-09-09T11:45:42;5.53;;;1.77;;
41480;SDS011;27217;51.220;5.308;2022-09-09T11:58:23;12.05;;;1.95;;
41480;SDS011;27217;51.220;5.308;2022-09-09T12:00:49;10.82;;;2.10;;
41480;SDS011;27217;51.220;5.308;2022-09-09T12:12:44;9.88;;;2.20;;
41480;SDS011;27217;51.220;5.308;2022-09-09T12:32:43;5.53;;;1.13;;
41480;SDS011;27217;51.220;5.308;2022-09-09T12:35:20;6.38;;;1.85;;
41480;SDS011;27217;51.220;5.308;2022-09-09T12:47:09;6.88;;;1.48;;
41480;SDS011;27217;51.220;5.308;2022-09-09T12:58:51;2.50;;;0.93;;
41480;SDS011;27217;51.220;5.308;2022-09-09T13:08:03;5.03;;;1.40;;
41480;SDS011;27217;51.220;5.308;2022-09-09T13:13:57;5.57;;;0.95;;
41480;SDS011;27217;51.220;5.308;2022-09-09T13:25:33;9.52;;;1.70;;
41480;SDS011;27217;51.220;5.308;2022-09-09T13:34:34;7.15;;;1.23;;
41480;SDS011;27217;51.220;5.308;2022-09-09T13:40:25;5.75;;;1.00;;
41480;SDS011;27217;51.220;5.308;2022-09-09T13:46:24;4.50;;;1.30;;
41480;SDS011;27217;51.220;5.308;2022-09-09T13:49:28;2.67;;;1.00;;
41480;SDS011;27217;51.220;5.308;2022-09-09T13:55:17;4.80;;;0.90;;
41480;SDS011;27217;51.220;5.308;2022-09-09T14:01:08;1.88;;;0.93;;
41480;SDS011;27217;51.220;5.308;2022-09-09T14:09:56;4.22;;;1.60;;
41480;SDS011;27217;51.220;5.308;2022-09-09T14:12:25;3.33;;;1.02;;
41480;SDS011;27217;51.220;5.308;2022-09-09T14:14:51;5.22;;;0.98;;
41480;SDS011;27217;51.220;5.308;2022-09-09T14:17:17;4.20;;;1.17;;
41480;SDS011;27217;51.220;5.308;2022-09-09T14:19:43;6.65;;;1.13;;
41480;SDS011;27217;51.220;5.308;2022-09-09T14:22:10;1.73;;;0.75;;
41480;SDS011;27217;51.220;5.308;2022-09-09T14:24:37;3.67;;;1.30;;
41480;SDS011;27217;51.220;5.308;2022-09-09T14:27:02;2.45;;;0.75;;
41480;SDS011;27217;51.220;5.308;2022-09-09T14:29:28;8.98;;;1.25;;
41480;SDS011;27217;51.220;5.308;2022-09-09T14:31:54;3.38;;;1.20;;
41480;SDS011;27217;51.220;5.308;2022-09-09T14:34:20;5.07;;;1.08;;
41480;SDS011;27217;51.220;5.308;2022-09-09T14:36:45;1.60;;;0.80;;
41480;SDS011;27217;51.220;5.308;2022-09-09T14:39:12;2.33;;;0.90;;
41480;SDS011;27217;51.220;5.308;2022-09-09T14:41:38;7.10;;;1.17;;
41480;SDS011;27217;51.220;5.308;2022-09-09T14:44:03;3.78;;;1.10;;
41480;SDS011;27217;51.220;5.308;2022-09-09T14:46:29;6.90;;;1.38;;
41480;SDS011;27217;51.220;5.308;2022-09-09T14:48:56;3.05;;;0.80;;
41480;SDS011;27217;51.220;5.308;2022-09-09T14:51:23;5.35;;;0.98;;
41480;SDS011;27217;51.220;5.308;2022-09-09T14:53:54;3.50;;;0.80;;
41480;SDS011;27217;51.220;5.308;2022-09-09T14:56:23;4.43;;;1.48;;
41480;SDS011;27217;51.220;5.308;2022-09-09T14:58:52;4.80;;;0.90;;
41480;SDS011;27217;51.220;5.308;2022-09-09T15:01:21;1.67;;;0.70;;
41480;SDS011;27217;51.220;5.308;2022-09-09T15:03:49;2.30;;;0.80;;
41480;SDS011;27217;51.220;5.308;2022-09-09T15:08:46;2.92;;;0.90;;
41480;SDS011;27217;51.220;5.308;2022-09-09T15:11:13;7.90;;;1.10;;
41480;SDS011;27217;51.220;5.308;2022-09-09T15:13:41;2.67;;;0.75;;
41480;SDS011;27217;51.220;5.308;2022-09-09T15:16:14;3.05;;;1.02;;
41480;SDS011;27217;51.220;5.308;2022-09-09T15:18:41;2.60;;;0.80;;
41480;SDS011;27217;51.220;5.308;2022-09-09T15:21:10;4.22;;;0.85;;
41480;SDS011;27217;51.220;5.308;2022-09-09T15:23:37;3.33;;;1.02;;
41480;SDS011;27217;51.220;5.308;2022-09-09T15:26:04;4.00;;;1.45;;
41480;SDS011;27217;51.220;5.308;2022-09-09T15:28:32;3.05;;;0.90;;
41480;SDS011;27217;51.220;5.308;2022-09-09T15:31:06;6.15;;;1.20;;
41480;SDS011;27217;51.220;5.308;2022-09-09T15:33:39;5.80;;;1.48;;
41480;SDS011;27217;51.220;5.308;2022-09-09T15:36:18;6.20;;;0.80;;
41480;SDS011;27217;51.220;5.308;2022-09-09T15:38:48;2.00;;;0.57;;
41480;SDS011;27217;51.220;5.308;2022-09-09T15:41:15;3.08;;;0.85;;
41480;SDS011;27217;51.220;5.308;2022-09-09T15:43:46;9.98;;;1.00;;
41480;SDS011;27217;51.220;5.308;2022-09-09T15:48:43;5.28;;;1.23;;
41480;SDS011;27217;51.220;5.308;2022-09-09T15:51:10;3.10;;;1.05;;
41480;SDS011;27217;51.220;5.308;2022-09-09T15:53:37;2.50;;;0.82;;
41480;SDS011;27217;51.220;5.308;2022-09-09T15:56:04;2.40;;;1.17;;
41480;SDS011;27217;51.220;5.308;2022-09-09T15:58:31;6.18;;;1.00;;
41480;SDS011;27217;51.220;5.308;2022-09-09T16:01:05;10.30;;;1.42;;
41480;SDS011;27217;51.220;5.308;2022-09-09T16:03:35;3.05;;;0.90;;
41480;SDS011;27217;51.220;5.308;2022-09-09T16:06:07;3.67;;;1.13;;
41480;SDS011;27217;51.220;5.308;2022-09-09T16:08:38;3.42;;;1.10;;
41480;SDS011;27217;51.220;5.308;2022-09-09T16:11:07;6.55;;;1.05;;
41480;SDS011;27217;51.220;5.308;2022-09-09T16:13:41;6.07;;;1.30;;
41480;SDS011;27217;51.220;5.308;2022-09-09T16:16:11;5.30;;;1.53;;
41480;SDS011;27217;51.220;5.308;2022-09-09T16:18:39;5.40;;;1.10;;
41480;SDS011;27217;51.220;5.308;2022-09-09T16:21:07;1.30;;;0.77;;
41480;SDS011;27217;51.220;5.308;2022-09-09T16:23:38;2.17;;;0.85;;
41480;SDS011;27217;51.220;5.308;2022-09-09T16:26:04;5.05;;;1.02;;
41480;SDS011;27217;51.220;5.308;2022-09-09T16:28:30;6.57;;;1.38;;
41480;SDS011;27217;51.220;5.308;2022-09-09T16:30:56;5.07;;;1.08;;
41480;SDS011;27217;51.220;5.308;2022-09-09T16:33:23;3.08;;;1.30;;
41480;SDS011;27217;51.220;5.308;2022-09-09T16:35:50;6.30;;;1.33;;
41480;SDS011;27217;51.220;5.308;2022-09-09T16:38:16;2.83;;;0.90;;
41480;SDS011;27217;51.220;5.308;2022-09-09T16:40:43;5.35;;;1.10;;
41480;SDS011;27217;51.220;5.308;2022-09-09T16:43:08;4.45;;;1.45;;
41480;SDS011;27217;51.220;5.308;2022-09-09T16:45:44;4.57;;;1.00;;
41480;SDS011;27217;51.220;5.308;2022-09-09T16:48:11;5.55;;;1.40;;
41480;SDS011;27217;51.220;5.308;2022-09-09T16:50:37;2.55;;;1.30;;
41480;SDS011;27217;51.220;5.308;2022-09-09T16:53:04;3.90;;;1.60;;
41480;SDS011;27217;51.220;5.308;2022-09-09T16:55:31;6.60;;;1.45;;
41480;SDS011;27217;51.220;5.308;2022-09-09T16:57:57;10.43;;;2.38;;
41480;SDS011;27217;51.220;5.308;2022-09-09T17:00:23;19.02;;;3.80;;
41480;SDS011;27217;51.220;5.308;2022-09-09T17:02:48;26.65;;;4.35;;
41480;SDS011;27217;51.220;5.308;2022-09-09T17:05:14;34.92;;;6.13;;
41480;SDS011;27217;51.220;5.308;2022-09-09T17:07:40;44.65;;;7.57;;
41480;SDS011;27217;51.220;5.308;2022-09-09T17:10:07;61.80;;;9.07;;
41480;SDS011;27217;51.220;5.308;2022-09-09T17:12:32;23.75;;;5.07;;
41480;SDS011;27217;51.220;5.308;2022-09-09T17:15:00;17.88;;;2.33;;
41480;SDS011;27217;51.220;5.308;2022-09-09T17:17:28;5.50;;;1.75;;
41480;SDS011;27217;51.220;5.308;2022-09-09T17:19:54;3.42;;;1.10;;
41480;SDS011;27217;51.220;5.308;2022-09-09T17:22:20;5.05;;;1.40;;
41480;SDS011;27217;51.220;5.308;2022-09-09T17:24:46;4.82;;;1.60;;
41480;SDS011;27217;51.220;5.308;2022-09-09T17:27:12;3.53;;;1.38;;
41480;SDS011;27217;51.220;5.308;2022-09-09T17:29:39;7.88;;;1.35;;
41480;SDS011;27217;51.220;5.308;2022-09-09T17:32:05;3.00;;;1.35;;
41480;SDS011;27217;51.220;5.308;2022-09-09T17:34:35;5.88;;;1.42;;
41480;SDS011;27217;51.220;5.308;2022-09-09T17:37:01;2.78;;;1.00;;
41480;SDS011;27217;51.220;5.308;2022-09-09T17:39:27;6.43;;;1.63;;
41480;SDS011;27217;51.220;5.308;2022-09-09T17:41:53;4.03;;;1.17;;
41480;SDS011;27217;51.220;5.308;2022-09-09T17:44:19;3.45;;;1.75;;
41480;SDS011;27217;51.220;5.308;2022-09-09T17:46:45;5.72;;;1.90;;
41480;SDS011;27217;51.220;5.308;2022-09-09T17:49:12;3.75;;;1.70;;
41480;SDS011;27217;51.220;5.308;2022-09-09T17:51:40;3.30;;;1.50;;
41480;SDS011;27217;51.220;5.308;2022-09-09T17:54:13;2.03;;;1.27;;
41480;SDS011;27217;51.220;5.308;2022-09-09T17:56:41;4.05;;;1.85;;
41480;SDS011;27217;51.220;5.308;2022-09-09T17:59:13;5.32;;;2.20;;
41480;SDS011;27217;51.220;5.308;2022-09-09T18:01:41;5.13;;;2.80;;
41480;SDS011;27217;51.220;5.308;2022-09-09T18:04:09;3.42;;;2.78;;
41480;SDS011;27217;51.220;5.308;2022-09-09T18:06:42;6.93;;;2.80;;
41480;SDS011;27217;51.220;5.308;2022-09-09T18:09:10;4.30;;;2.65;;
41480;SDS011;27217;51.220;5.308;2022-09-09T18:11:40;6.68;;;3.67;;
41480;SDS011;27217;51.220;5.308;2022-09-09T18:14:20;8.35;;;2.22;;
41480;SDS011;27217;51.220;5.308;2022-09-09T18:16:47;5.57;;;2.50;;
41480;SDS011;27217;51.220;5.308;2022-09-09T18:19:14;7.18;;;2.10;;
41480;SDS011;27217;51.220;5.308;2022-09-09T18:21:42;4.93;;;2.00;;
41480;SDS011;27217;51.220;5.308;2022-09-09T18:24:09;2.58;;;1.77;;
41480;SDS011;27217;51.220;5.308;2022-09-09T18:26:36;6.57;;;1.92;;
41480;SDS011;27217;51.220;5.308;2022-09-09T18:29:05;6.20;;;1.95;;
41480;SDS011;27217;51.220;5.308;2022-09-09T18:31:32;3.10;;;1.60;;
41480;SDS011;27217;51.220;5.308;2022-09-09T18:34:00;4.47;;;1.85;;
41480;SDS011;27217;51.220;5.308;2022-09-09T18:36:31;3.17;;;1.83;;
41480;SDS011;27217;51.220;5.308;2022-09-09T18:39:02;3.90;;;1.85;;
41480;SDS011;27217;51.220;5.308;2022-09-09T18:41:34;9.52;;;2.00;;
41480;SDS011;27217;51.220;5.308;2022-09-09T18:44:03;4.82;;;1.73;;
41480;SDS011;27217;51.220;5.308;2022-09-09T18:46:34;4.30;;;1.85;;
41480;SDS011;27217;51.220;5.308;2022-09-09T18:49:01;3.20;;;1.58;;
41480;SDS011;27217;51.220;5.308;2022-09-09T18:51:29;5.30;;;1.73;;
41480;SDS011;27217;51.220;5.308;2022-09-09T18:53:59;6.45;;;1.95;;
41480;SDS011;27217;51.220;5.308;2022-09-09T18:56:27;8.00;;;3.13;;
41480;SDS011;27217;51.220;5.308;2022-09-09T18:58:55;4.47;;;2.30;;
41480;SDS011;27217;51.220;5.308;2022-09-09T19:01:22;8.77;;;2.47;;
41480;SDS011;27217;51.220;5.308;2022-09-09T19:03:49;10.02;;;3.05;;
41480;SDS011;27217;51.220;5.308;2022-09-09T19:06:18;5.53;;;2.55;;
41480;SDS011;27217;51.220;5.308;2022-09-09T19:08:47;7.18;;;2.50;;
41480;SDS011;27217;51.220;5.308;2022-09-09T19:11:15;6.70;;;2.60;;
41480;SDS011;27217;51.220;5.308;2022-09-09T19:16:38;12.88;;;4.18;;
41480;SDS011;27217;51.220;5.308;2022-09-09T19:19:13;4.47;;;2.50;;
41480;SDS011;27217;51.220;5.308;2022-09-09T19:21:47;6.63;;;2.92;;
41480;SDS011;27217;51.220;5.308;2022-09-09T19:24:18;6.03;;;2.70;;
41480;SDS011;27217;51.220;5.308;2022-09-09T19:26:47;8.48;;;2.55;;
41480;SDS011;27217;51.220;5.308;2022-09-09T19:29:19;6.95;;;2.40;;
41480;SDS011;27217;51.220;5.308;2022-09-09T19:31:46;5.05;;;2.60;;
41480;SDS011;27217;51.220;5.308;2022-09-09T19:34:13;5.57;;;3.20;;
41480;SDS011;27217;51.220;5.308;2022-09-09T19:36:40;7.28;;;2.90;;
41480;SDS011;27217;51.220;5.308;2022-09-09T19:39:07;9.00;;;3.33;;
41480;SDS011;27217;51.220;5.308;2022-09-09T19:41:34;7.57;;;3.08;;
41480;SDS011;27217;51.220;5.308;2022-09-09T19:44:02;11.13;;;3.60;;
41480;SDS011;27217;51.220;5.308;2022-09-09T19:46:34;9.35;;;3.70;;
41480;SDS011;27217;51.220;5.308;2022-09-09T19:49:01;8.57;;;3.40;;
41480;SDS011;27217;51.220;5.308;2022-09-09T19:51:28;13.40;;;4.25;;
41480;SDS011;27217;51.220;5.308;2022-09-09T19:53:57;7.43;;;3.47;;
41480;SDS011;27217;51.220;5.308;2022-09-09T19:56:27;9.63;;;3.55;;
41480;SDS011;27217;51.220;5.308;2022-09-09T19:58:53;8.13;;;3.30;;
41480;SDS011;27217;51.220;5.308;2022-09-09T20:01:21;11.00;;;3.80;;
41480;SDS011;27217;51.220;5.308;2022-09-09T20:03:51;9.63;;;2.90;;
41480;SDS011;27217;51.220;5.308;2022-09-09T20:06:19;13.32;;;2.80;;
41480;SDS011;27217;51.220;5.308;2022-09-09T20:08:54;9.38;;;3.20;;
41480;SDS011;27217;51.220;5.308;2022-09-09T20:11:21;15.40;;;3.60;;
41480;SDS011;27217;51.220;5.308;2022-09-09T20:13:48;8.40;;;3.50;;
41480;SDS011;27217;51.220;5.308;2022-09-09T20:16:15;9.55;;;2.92;;
41480;SDS011;27217;51.220;5.308;2022-09-09T20:18:44;12.77;;;3.58;;
41480;SDS011;27217;51.220;5.308;2022-09-09T20:21:15;5.15;;;2.85;;
41480;SDS011;27217;51.220;5.308;2022-09-09T20:23:44;16.77;;;3.63;;
41480;SDS011;27217;51.220;5.308;2022-09-09T20:26:12;11.50;;;3.50;;
41480;SDS011;27217;51.220;5.308;2022-09-09T20:28:41;8.70;;;2.83;;
41480;SDS011;27217;51.220;5.308;2022-09-09T20:31:11;10.95;;;3.20;;
41480;SDS011;27217;51.220;5.308;2022-09-09T20:33:39;7.03;;;3.30;;
41480;SDS011;27217;51.220;5.308;2022-09-09T20:38:40;10.82;;;3.90;;
41480;SDS011;27217;51.220;5.308;2022-09-09T20:41:08;16.50;;;3.58;;
41480;SDS011;27217;51.220;5.308;2022-09-09T20:43:38;7.40;;;3.25;;
41480;SDS011;27217;51.220;5.308;2022-09-09T20:46:04;13.43;;;3.60;;
41480;SDS011;27217;51.220;5.308;2022-09-09T20:48:31;14.00;;;3.28;;
41480;SDS011;27217;51.220;5.308;2022-09-09T20:51:04;11.70;;;4.07;;
41480;SDS011;27217;51.220;5.308;2022-09-09T20:53:31;14.13;;;3.60;;
41480;SDS011;27217;51.220;5.308;2022-09-09T20:55:58;15.68;;;4.43;;
41480;SDS011;27217;51.220;5.308;2022-09-09T20:58:25;23.48;;;5.15;;
41480;SDS011;27217;51.220;5.308;2022-09-09T21:00:51;10.52;;;4.88;;
41480;SDS011;27217;51.220;5.308;2022-09-09T21:03:17;16.25;;;4.70;;
41480;SDS011;27217;51.220;5.308;2022-09-09T21:05:44;14.45;;;3.80;;
41480;SDS011;27217;51.220;5.308;2022-09-09T21:08:09;21.10;;;4.50;;
41480;SDS011;27217;51.220;5.308;2022-09-09T21:10:35;8.93;;;3.85;;
41480;SDS011;27217;51.220;5.308;2022-09-09T21:13:01;20.92;;;5.68;;
41480;SDS011;27217;51.220;5.308;2022-09-09T21:15:27;13.75;;;4.10;;
41480;SDS011;27217;51.220;5.308;2022-09-09T21:17:53;11.75;;;4.65;;
41480;SDS011;27217;51.220;5.308;2022-09-09T21:20:19;17.60;;;4.63;;
41480;SDS011;27217;51.220;5.308;2022-09-09T21:22:45;16.15;;;4.20;;
41480;SDS011;27217;51.220;5.308;2022-09-09T21:25:11;15.63;;;3.85;;
41480;SDS011;27217;51.220;5.308;2022-09-09T21:27:37;12.77;;;3.72;;
41480;SDS011;27217;51.220;5.308;2022-09-09T21:30:03;13.48;;;3.60;;
41480;SDS011;27217;51.220;5.308;2022-09-09T21:32:29;17.15;;;3.60;;
41480;SDS011;27217;51.220;5.308;2022-09-09T21:34:55;13.05;;;3.30;;
41480;SDS011;27217;51.220;5.308;2022-09-09T21:37:21;14.88;;;3.40;;
41480;SDS011;27217;51.220;5.308;2022-09-09T21:39:47;9.05;;;2.97;;
41480;SDS011;27217;51.220;5.308;2022-09-09T21:42:13;12.52;;;2.72;;
41480;SDS011;27217;51.220;5.308;2022-09-09T21:44:39;13.07;;;3.42;;
41480;SDS011;27217;51.220;5.308;2022-09-09T21:47:05;11.57;;;3.40;;
41480;SDS011;27217;51.220;5.308;2022-09-09T21:49:31;9.40;;;3.30;;
41480;SDS011;27217;51.220;5.308;2022-09-09T21:51:57;14.88;;;3.88;;
41480;SDS011;27217;51.220;5.308;2022-09-09T21:54:23;15.68;;;4.22;;
41480;SDS011;27217;51.220;5.308;2022-09-09T21:56:53;9.88;;;2.53;;
41480;SDS011;27217;51.220;5.308;2022-09-09T21:59:19;15.07;;;3.05;;
41480;SDS011;27217;51.220;5.308;2022-09-09T22:01:45;8.10;;;2.25;;
41480;SDS011;27217;51.220;5.308;2022-09-09T22:04:12;10.32;;;2.75;;
41480;SDS011;27217;51.220;5.308;2022-09-09T22:06:38;7.72;;;2.70;;
41480;SDS011;27217;51.220;5.308;2022-09-09T22:09:04;9.38;;;2.70;;
41480;SDS011;27217;51.220;5.308;2022-09-09T22:11:30;15.00;;;3.30;;
41480;SDS011;27217;51.220;5.308;2022-09-09T22:13:56;15.05;;;3.47;;
41480;SDS011;27217;51.220;5.308;2022-09-09T22:16:22;7.45;;;3.50;;
41480;SDS011;27217;51.220;5.308;2022-09-09T22:18:50;12.23;;;4.55;;
41480;SDS011;27217;51.220;5.308;2022-09-09T22:21:20;17.05;;;5.20;;
41480;SDS011;27217;51.220;5.308;2022-09-09T22:23:51;14.80;;;4.90;;
41480;SDS011;27217;51.220;5.308;2022-09-09T22:26:21;14.80;;;5.95;;
41480;SDS011;27217;51.220;5.308;2022-09-09T22:28:49;20.05;;;6.68;;
41480;SDS011;27217;51.220;5.308;2022-09-09T22:31:17;15.00;;;6.47;;
41480;SDS011;27217;51.220;5.308;2022-09-09T22:33:47;17.60;;;7.18;;
41480;SDS011;27217;51.220;5.308;2022-09-09T22:36:13;12.10;;;6.13;;
41480;SDS011;27217;51.220;5.308;2022-09-09T22:38:39;13.18;;;6.22;;
41480;SDS011;27217;51.220;5.308;2022-09-09T22:41:05;16.02;;;5.53;;
41480;SDS011;27217;51.220;5.308;2022-09-09T22:43:31;14.88;;;5.93;;
41480;SDS011;27217;51.220;5.308;2022-09-09T22:45:58;15.25;;;5.63;;
41480;SDS011;27217;51.220;5.308;2022-09-09T22:48:25;16.17;;;5.10;;
41480;SDS011;27217;51.220;5.308;2022-09-09T22:50:50;9.32;;;4.10;;
41480;SDS011;27217;51.220;5.308;2022-09-09T22:53:17;11.55;;;4.43;;
41480;SDS011;27217;51.220;5.308;2022-09-09T22:55:54;18.48;;;4.65;;
41480;SDS011;27217;51.220;5.308;2022-09-09T22:58:23;14.20;;;4.18;;
41480;SDS011;27217;51.220;5.308;2022-09-09T23:00:50;21.67;;;4.60;;
41480;SDS011;27217;51.220;5.308;2022-09-09T23:03:17;9.05;;;4.28;;
41480;SDS011;27217;51.220;5.308;2022-09-09T23:05:53;8.23;;;4.30;;
41480;SDS011;27217;51.220;5.308;2022-09-09T23:08:27;15.30;;;4.55;;
41480;SDS011;27217;51.220;5.308;2022-09-09T23:11:07;14.82;;;4.07;;
41480;SDS011;27217;51.220;5.308;2022-09-09T23:13:35;12.70;;;3.65;;
41480;SDS011;27217;51.220;5.308;2022-09-09T23:16:13;9.60;;;4.15;;
41480;SDS011;27217;51.220;5.308;2022-09-09T23:18:41;11.98;;;4.53;;
41480;SDS011;27217;51.220;5.308;2022-09-09T23:21:08;8.65;;;4.03;;
41480;SDS011;27217;51.220;5.308;2022-09-09T23:23:35;23.25;;;4.43;;
41480;SDS011;27217;51.220;5.308;2022-09-09T23:26:03;16.30;;;4.68;;
41480;SDS011;27217;51.220;5.308;2022-09-09T23:28:32;14.60;;;4.32;;
41480;SDS011;27217;51.220;5.308;2022-09-09T23:31:00;18.05;;;5.63;;
41480;SDS011;27217;51.220;5.308;2022-09-09T23:33:27;9.80;;;5.13;;
41480;SDS011;27217;51.220;5.308;2022-09-09T23:35:58;12.68;;;4.85;;
41480;SDS011;27217;51.220;5.308;2022-09-09T23:38:25;12.63;;;5.45;;
41480;SDS011;27217;51.220;5.308;2022-09-09T23:40:52;11.32;;;4.78;;
41480;SDS011;27217;51.220;5.308;2022-09-09T23:43:18;17.42;;;5.30;;
41480;SDS011;27217;51.220;5.308;2022-09-09T23:45:50;14.43;;;5.10;;
41480;SDS011;27217;51.220;5.308;2022-09-09T23:48:16;17.30;;;6.13;;
41480;SDS011;27217;51.220;5.308;2022-09-09T23:50:42;17.80;;;5.40;;
41480;SDS011;27217;51.220;5.308;2022-09-09T23:53:09;15.68;;;6.25;;
41480;SDS011;27217;51.220;5.308;2022-09-09T23:55:36;14.63;;;5.15;;
41480;SDS011;27217;51.220;5.308;2022-09-09T23:58:03;18.08;;;6.13;;
